createdAt,value
2023-05-22T00:01:59.254Z,14.90
2023-05-22T00:07:27.693Z,14.80
2023-05-22T00:12:55.925Z,14.80
2023-05-22T00:18:25.797Z,14.60
2023-05-22T00:23:54.266Z,14.50
2023-05-22T00:29:22.520Z,14.40
2023-05-22T00:34:50.828Z,14.30
2023-05-22T00:40:19.200Z,14.10
2023-05-22T00:45:47.815Z,14.00
2023-05-22T00:51:16.544Z,13.90
2023-05-22T00:56:45.032Z,13.80
2023-05-22T01:02:16.617Z,13.70
2023-05-22T01:07:48.085Z,13.70
2023-05-22T01:13:47.915Z,13.60
2023-05-22T01:19:54.230Z,13.50
2023-05-22T01:26:10.224Z,13.40
2023-05-22T01:31:42.062Z,13.40
2023-05-22T01:37:11.442Z,13.40
2023-05-22T01:42:41.337Z,13.30
2023-05-22T01:48:09.750Z,13.20
2023-05-22T01:53:50.431Z,13.10
2023-05-22T01:59:37.688Z,13.00
2023-05-22T02:05:10.571Z,12.90
2023-05-22T02:10:41.457Z,12.90
2023-05-22T02:16:12.396Z,12.80
2023-05-22T02:21:40.899Z,12.70
2023-05-22T02:27:09.674Z,12.60
2023-05-22T02:32:38.796Z,12.60
2023-05-22T02:38:07.164Z,12.50
2023-05-22T02:43:35.816Z,12.50
2023-05-22T02:49:03.991Z,12.40
2023-05-22T02:54:32.451Z,12.40
2023-05-22T03:00:01.634Z,12.30
2023-05-22T03:05:31.478Z,12.20
2023-05-22T03:11:01.704Z,12.20
2023-05-22T03:16:30.271Z,12.10
2023-05-22T03:21:58.545Z,12.10
2023-05-22T03:27:26.760Z,12.10
2023-05-22T03:32:55.201Z,12.10
2023-05-22T03:38:23.608Z,12.10
2023-05-22T03:43:51.845Z,12.10
2023-05-22T03:49:20.855Z,12.00
2023-05-22T03:54:52.225Z,12.00
2023-05-22T04:00:20.873Z,12.00
2023-05-22T04:05:49.058Z,12.10
2023-05-22T04:11:17.100Z,12.10
2023-05-22T04:16:45.436Z,12.20
2023-05-22T04:22:13.249Z,12.30
2023-05-22T04:27:41.455Z,12.50
2023-05-22T04:33:10.628Z,12.60
2023-05-22T04:38:38.797Z,12.80
2023-05-22T04:44:07.470Z,13.00
2023-05-22T04:49:35.984Z,13.20
2023-05-22T04:55:06.031Z,13.40
2023-05-22T05:00:35.366Z,13.60
2023-05-22T05:06:03.632Z,13.90
2023-05-22T05:11:31.988Z,14.10
2023-05-22T05:17:00.611Z,14.40
2023-05-22T05:22:29.314Z,14.60
2023-05-22T05:27:58.809Z,15.00
2023-05-22T05:33:27.854Z,15.20
2023-05-22T05:39:09.425Z,15.60
2023-05-22T05:44:38.294Z,15.90
2023-05-22T05:50:09.831Z,16.20
2023-05-22T05:55:39.800Z,16.50
2023-05-22T06:01:08.457Z,16.70
2023-05-22T06:06:39.690Z,17.00
2023-05-22T06:12:33.806Z,17.20
2023-05-22T06:18:02.699Z,17.50
2023-05-22T06:23:31.021Z,17.70
2023-05-22T06:28:59.680Z,18.00
2023-05-22T06:34:29.879Z,18.20
2023-05-22T06:39:59.938Z,18.50
2023-05-22T06:45:51.069Z,18.80
2023-05-22T06:51:19.311Z,19.00
2023-05-22T06:56:52.323Z,19.20
2023-05-22T07:02:20.839Z,19.30
2023-05-22T07:08:29.676Z,19.50
2023-05-22T07:13:58.925Z,19.70
2023-05-22T07:19:27.434Z,19.90
2023-05-22T07:24:58.763Z,20.10
2023-05-22T07:30:32.153Z,20.30
2023-05-22T07:36:01.414Z,20.40
2023-05-22T07:41:29.933Z,20.50
2023-05-22T07:46:58.282Z,20.70
2023-05-22T07:52:27.887Z,20.80
2023-05-22T07:57:56.388Z,21.10
2023-05-22T08:03:32.372Z,21.30
2023-05-22T08:09:01.172Z,21.40
2023-05-22T08:14:28.932Z,21.50
2023-05-22T08:19:57.395Z,21.60
2023-05-22T08:25:25.354Z,21.80
2023-05-22T08:30:54.537Z,22.00
2023-05-22T08:36:24.750Z,22.10
2023-05-22T08:41:53.617Z,22.30
2023-05-22T08:47:26.147Z,22.40
2023-05-22T08:52:59.488Z,22.60
2023-05-22T08:58:28.983Z,22.70
2023-05-22T09:04:03.641Z,22.70
2023-05-22T09:09:41.612Z,22.80
2023-05-22T09:15:11.306Z,23.00
2023-05-22T09:20:39.431Z,23.30
2023-05-22T09:26:07.988Z,23.40
2023-05-22T09:31:44.900Z,23.50
2023-05-22T09:37:16.281Z,23.70
2023-05-22T09:42:47.098Z,23.80
2023-05-22T09:48:18.673Z,23.70
2023-05-22T09:53:49.093Z,23.90
2023-05-22T09:59:23.343Z,24.10
2023-05-22T10:04:52.767Z,24.30
2023-05-22T10:10:25.562Z,24.50
2023-05-22T10:15:54.264Z,24.70
2023-05-22T10:21:23.115Z,24.90
2023-05-22T10:26:52.172Z,25.20
2023-05-22T10:33:07.479Z,25.40
2023-05-22T10:38:54.260Z,25.60
2023-05-22T10:44:23.200Z,25.80
2023-05-22T10:50:11.041Z,25.90
2023-05-22T10:55:49.326Z,25.80
2023-05-22T11:01:19.951Z,26.10
2023-05-22T11:07:06.908Z,26.10
2023-05-22T11:12:35.135Z,26.20
2023-05-22T11:18:06.185Z,26.30
2023-05-22T11:23:35.458Z,26.30
2023-05-22T11:29:06.374Z,26.30
2023-05-22T11:34:34.257Z,26.40
2023-05-22T11:40:06.045Z,26.40
2023-05-22T11:45:38.036Z,26.30
2023-05-22T11:51:06.584Z,26.40
2023-05-22T11:56:34.819Z,26.50
2023-05-22T12:02:03.243Z,26.40
2023-05-22T12:07:31.668Z,26.50
2023-05-22T12:12:59.467Z,26.50
2023-05-22T12:18:35.641Z,26.60
2023-05-22T12:24:05.795Z,26.70
2023-05-22T12:29:34.878Z,26.70
2023-05-22T12:35:03.189Z,26.80
2023-05-22T12:40:31.054Z,26.60
2023-05-22T12:46:01.751Z,26.70
2023-05-22T12:51:32.228Z,26.70
2023-05-22T12:57:00.746Z,26.80
2023-05-22T13:02:28.897Z,26.70
2023-05-22T13:07:57.298Z,26.70
2023-05-22T13:13:25.495Z,26.70
2023-05-22T13:18:53.182Z,26.80
2023-05-22T13:24:21.143Z,26.70
2023-05-22T13:29:48.896Z,26.70
2023-05-22T13:35:17.085Z,26.70
2023-05-22T13:40:47.613Z,26.60
2023-05-22T13:46:17.778Z,26.70
2023-05-22T13:51:46.275Z,26.80
2023-05-22T13:57:14.359Z,26.70
2023-05-22T14:02:42.217Z,26.70
2023-05-22T14:08:10.230Z,26.80
2023-05-22T14:13:38.575Z,26.80
2023-05-22T14:19:06.822Z,27.00
2023-05-22T14:24:34.694Z,27.00
2023-05-22T14:30:02.698Z,27.10
2023-05-22T14:35:31.460Z,27.20
2023-05-22T14:40:59.838Z,27.20
2023-05-22T14:46:27.846Z,27.40
2023-05-22T14:51:55.888Z,27.30
2023-05-22T14:57:23.823Z,27.10
2023-05-22T15:02:52.346Z,27.00
2023-05-22T15:08:20.804Z,26.80
2023-05-22T15:13:49.809Z,26.70
2023-05-22T15:19:18.105Z,26.50
2023-05-22T15:24:48.308Z,26.10
2023-05-22T15:30:17.338Z,25.70
2023-05-22T15:35:47.386Z,25.40
2023-05-22T15:41:15.653Z,25.30
2023-05-22T15:46:43.827Z,25.10
2023-05-22T15:52:11.645Z,25.10
2023-05-22T15:57:39.438Z,25.50
2023-05-22T16:03:09.005Z,25.60
2023-05-22T16:08:37.404Z,25.40
2023-05-22T16:14:05.377Z,25.20
2023-05-22T16:19:33.840Z,25.10
2023-05-22T16:25:01.817Z,25.00
2023-05-22T16:30:30.149Z,24.80
2023-05-22T16:35:58.361Z,24.80
2023-05-22T16:41:26.990Z,25.70
2023-05-22T16:47:23.786Z,25.50
2023-05-22T16:52:52.394Z,25.30
2023-05-22T16:58:21.868Z,25.00
2023-05-22T17:03:50.361Z,24.70
2023-05-22T17:09:18.488Z,24.50
2023-05-22T17:14:49.946Z,24.40
2023-05-22T17:20:18.029Z,24.20
2023-05-22T17:25:47.352Z,24.10
2023-05-22T17:31:16.392Z,23.90
2023-05-22T17:36:45.038Z,23.80
2023-05-22T17:42:13.573Z,23.70
2023-05-22T17:47:41.888Z,23.60
2023-05-22T17:53:10.280Z,23.40
2023-05-22T17:58:38.593Z,23.30
2023-05-22T18:04:06.913Z,23.20
2023-05-22T18:09:35.251Z,23.10
2023-05-22T18:15:04.721Z,22.90
2023-05-22T18:20:33.563Z,22.60
2023-05-22T18:26:01.781Z,22.40
2023-05-22T18:31:30.834Z,22.20
2023-05-22T18:36:59.826Z,22.10
2023-05-22T18:42:28.234Z,21.90
2023-05-22T18:47:56.494Z,21.70
2023-05-22T18:53:25.422Z,21.60
2023-05-22T18:58:53.337Z,21.40
2023-05-22T19:04:22.833Z,21.30
2023-05-22T19:09:51.480Z,21.20
2023-05-22T19:15:19.744Z,21.10
2023-05-22T19:20:47.971Z,20.90
2023-05-22T19:26:17.153Z,20.80
2023-05-22T19:31:45.727Z,20.70
2023-05-22T19:37:17.489Z,20.60
2023-05-22T19:42:46.194Z,20.50
2023-05-22T19:48:14.998Z,20.30
2023-05-22T19:53:44.116Z,20.20
2023-05-22T19:59:12.552Z,20.10
2023-05-22T20:04:43.399Z,19.90
2023-05-22T20:10:11.792Z,19.80
2023-05-22T20:15:41.194Z,19.70
2023-05-22T20:21:10.023Z,19.50
2023-05-22T20:26:39.289Z,19.50
2023-05-22T20:32:07.287Z,19.40
2023-05-22T20:37:35.895Z,19.30
2023-05-22T20:43:04.173Z,19.20
2023-05-22T20:48:32.963Z,19.10
2023-05-22T20:54:01.470Z,19.00
2023-05-22T20:59:31.071Z,18.90
2023-05-22T21:05:00.173Z,18.90
2023-05-22T21:10:28.391Z,18.80
2023-05-22T21:15:56.188Z,18.70
2023-05-22T21:21:24.477Z,18.60
2023-05-22T21:26:52.670Z,18.50
2023-05-22T21:32:20.853Z,18.40
2023-05-22T21:37:48.941Z,18.30
2023-05-22T21:43:17.125Z,18.30
2023-05-22T21:48:46.254Z,18.20
2023-05-22T21:54:14.595Z,18.10
2023-05-22T21:59:42.935Z,18.00
2023-05-22T22:05:11.929Z,17.90
2023-05-22T22:10:40.381Z,17.80
2023-05-22T22:16:09.070Z,17.70
2023-05-22T22:21:37.371Z,17.60
2023-05-22T22:27:06.088Z,17.50
2023-05-22T22:32:34.508Z,17.30
2023-05-22T22:38:02.865Z,17.20
2023-05-22T22:43:31.497Z,17.10
2023-05-22T22:49:01.984Z,17.00
2023-05-22T22:54:30.574Z,16.90
2023-05-22T22:59:58.927Z,16.80
2023-05-22T23:05:27.309Z,16.60
2023-05-22T23:10:55.536Z,16.60
2023-05-22T23:16:23.866Z,16.50
2023-05-22T23:21:52.137Z,16.40
2023-05-22T23:27:20.449Z,16.40
2023-05-22T23:32:49.046Z,16.40
2023-05-22T23:38:17.046Z,16.30
2023-05-22T23:43:46.283Z,16.20
2023-05-22T23:49:14.715Z,16.20
2023-05-22T23:54:43.008Z,16.10
